createdAt,value
2018-02-10T00:00:13.423Z,142.00
2018-02-10T00:02:39.603Z,154.97
2018-02-10T00:05:05.814Z,143.13
2018-02-10T00:07:31.981Z,146.23
2018-02-10T00:09:58.923Z,149.60
2018-02-10T00:12:25.105Z,151.47
2018-02-10T00:14:51.302Z,154.30
2018-02-10T00:17:17.445Z,148.40
2018-02-10T00:19:43.638Z,154.37
2018-02-10T00:22:10.634Z,152.40
2018-02-10T00:24:36.810Z,153.07
2018-02-10T00:27:03.715Z,153.80
2018-02-10T00:29:29.906Z,155.37
2018-02-10T00:31:56.076Z,151.47
2018-02-10T00:34:22.265Z,158.47
2018-02-10T00:36:48.443Z,146.53
2018-02-10T00:39:15.379Z,163.37
2018-02-10T00:41:41.611Z,165.13
2018-02-10T00:44:08.559Z,150.10
2018-02-10T00:46:35.473Z,146.13
2018-02-10T00:49:01.687Z,160.83
2018-02-10T00:51:27.846Z,147.53
2018-02-10T00:53:54.066Z,152.07
2018-02-10T00:56:20.223Z,157.03
2018-02-10T00:58:47.160Z,147.20
2018-02-10T01:01:14.063Z,151.70
2018-02-10T01:03:40.227Z,164.87
2018-02-10T01:06:06.441Z,152.93
2018-02-10T01:08:33.361Z,160.40
2018-02-10T01:10:59.550Z,171.63
2018-02-10T01:13:25.759Z,159.50
2018-02-10T01:15:52.656Z,160.13
2018-02-10T01:18:18.888Z,159.33
2018-02-10T01:20:45.091Z,151.53
2018-02-10T01:23:11.287Z,164.27
2018-02-10T01:25:38.150Z,155.77
2018-02-10T01:28:04.371Z,170.17
2018-02-10T01:30:30.602Z,162.73
2018-02-10T01:32:56.777Z,163.80
2018-02-10T01:35:22.972Z,163.97
2018-02-10T01:37:49.162Z,172.20
2018-02-10T01:40:16.073Z,167.80
2018-02-10T01:42:42.274Z,171.90
2018-02-10T01:45:08.432Z,156.40
2018-02-10T01:47:34.606Z,172.10
2018-02-10T01:50:13.019Z,160.70
2018-02-10T01:52:39.233Z,158.80
2018-02-10T01:55:05.432Z,167.50
2018-02-10T01:57:31.606Z,173.23
2018-02-10T01:59:57.790Z,174.10
2018-02-10T02:02:23.995Z,171.00
2018-02-10T02:04:50.203Z,172.33
2018-02-10T02:07:16.363Z,180.30
2018-02-10T02:09:42.539Z,178.23
2018-02-10T02:12:08.727Z,162.90
2018-02-10T02:14:35.654Z,169.77
2018-02-10T02:17:01.838Z,168.27
2018-02-10T02:19:28.385Z,178.03
2018-02-10T02:21:54.952Z,186.53
2018-02-10T02:24:21.907Z,174.70
2018-02-10T02:26:48.806Z,185.87
2018-02-10T02:29:14.981Z,176.63
2018-02-10T02:31:41.876Z,186.43
2018-02-10T02:34:08.084Z,174.33
2018-02-10T02:36:34.267Z,176.33
2018-02-10T02:39:01.231Z,177.30
2018-02-10T02:41:28.255Z,170.13
2018-02-10T02:43:54.431Z,177.73
2018-02-10T02:46:20.613Z,183.00
2018-02-10T02:48:47.543Z,163.53
2018-02-10T02:51:14.533Z,179.03
2018-02-10T02:53:40.685Z,159.83
2018-02-10T02:56:06.851Z,178.10
2018-02-10T02:58:33.093Z,175.20
2018-02-10T03:01:00.077Z,165.57
2018-02-10T03:03:26.262Z,174.73
2018-02-10T03:05:53.179Z,181.37
2018-02-10T03:08:19.356Z,168.53
2018-02-10T03:10:52.514Z,185.57
2018-02-10T03:13:19.425Z,179.43
2018-02-10T03:15:45.626Z,165.67
2018-02-10T03:18:11.811Z,174.30
2018-02-10T03:20:38.760Z,195.80
2018-02-10T03:23:05.704Z,169.77
2018-02-10T03:25:32.595Z,185.27
2018-02-10T03:27:58.790Z,159.03
2018-02-10T03:30:24.948Z,175.83
2018-02-10T03:32:51.144Z,158.93
2018-02-10T03:35:18.058Z,185.03
2018-02-10T03:37:44.264Z,178.97
2018-02-10T03:40:10.437Z,160.93
2018-02-10T03:42:36.663Z,169.23
2018-02-10T03:45:02.878Z,192.10
2018-02-10T03:47:29.088Z,177.50
2018-02-10T03:49:55.279Z,185.00
2018-02-10T03:52:21.488Z,171.93
2018-02-10T03:54:47.728Z,174.00
2018-02-10T03:57:13.903Z,180.87
2018-02-10T03:59:40.907Z,180.17
2018-02-10T04:02:07.090Z,176.93
2018-02-10T04:04:33.293Z,181.50
2018-02-10T04:06:59.460Z,176.80
2018-02-10T04:09:25.687Z,184.07
2018-02-10T04:11:51.854Z,167.67
2018-02-10T04:14:18.042Z,177.13
2018-02-10T04:16:44.211Z,178.80
2018-02-10T04:19:10.385Z,204.73
2018-02-10T04:21:36.634Z,174.50
2018-02-10T04:24:02.840Z,177.73
2018-02-10T04:26:29.019Z,170.13
2018-02-10T04:28:55.200Z,154.10
2018-02-10T04:31:21.410Z,179.13
2018-02-10T04:33:47.598Z,182.83
2018-02-10T04:36:13.763Z,179.40
2018-02-10T04:38:39.939Z,189.30
2018-02-10T04:41:06.092Z,169.37
2018-02-10T04:43:32.308Z,169.57
2018-02-10T04:45:58.521Z,183.57
2018-02-10T04:48:24.698Z,172.27
2018-02-10T04:50:50.932Z,187.27
2018-02-10T04:53:17.101Z,185.60
2018-02-10T04:55:43.254Z,176.60
2018-02-10T04:58:10.160Z,175.10
2018-02-10T05:00:36.336Z,189.17
2018-02-10T05:03:03.243Z,180.63
2018-02-10T05:05:29.454Z,183.47
2018-02-10T05:07:56.371Z,186.17
2018-02-10T05:10:22.542Z,173.50
2018-02-10T05:12:48.730Z,192.63
2018-02-10T05:15:14.927Z,191.50
2018-02-10T05:17:41.834Z,183.07
2018-02-10T05:20:08.035Z,189.27
2018-02-10T05:22:34.222Z,178.07
2018-02-10T05:25:01.157Z,169.87
2018-02-10T05:27:28.095Z,184.07
2018-02-10T05:29:54.277Z,177.03
2018-02-10T05:32:20.471Z,180.20
2018-02-10T05:34:47.379Z,168.33
2018-02-10T05:37:13.602Z,173.27
2018-02-10T05:39:39.821Z,180.40
2018-02-10T05:42:06.081Z,172.10
2018-02-10T05:44:32.994Z,173.60
2018-02-10T05:46:59.191Z,190.97
2018-02-10T05:49:25.378Z,184.97
2018-02-10T05:51:52.260Z,175.00
2018-02-10T05:54:18.454Z,166.70
2018-02-10T05:56:44.651Z,176.50
2018-02-10T05:59:11.622Z,181.77
2018-02-10T06:01:38.542Z,181.33
2018-02-10T06:04:04.747Z,184.47
2018-02-10T06:06:31.711Z,192.87
2018-02-10T06:08:57.903Z,179.77
2018-02-10T06:11:24.070Z,179.87
2018-02-10T06:13:50.231Z,180.93
2018-02-10T06:16:16.415Z,172.70
2018-02-10T06:18:42.636Z,195.00
2018-02-10T06:21:09.611Z,178.47
2018-02-10T06:23:36.547Z,175.77
2018-02-10T06:26:03.518Z,166.93
2018-02-10T06:28:29.681Z,193.27
2018-02-10T06:30:55.843Z,178.17
2018-02-10T06:33:22.787Z,192.50
2018-02-10T06:35:49.758Z,183.13
2018-02-10T06:38:15.963Z,180.27
2018-02-10T06:40:42.869Z,179.53
2018-02-10T06:43:09.087Z,183.33
2018-02-10T06:45:35.293Z,180.37
2018-02-10T06:48:01.499Z,166.10
2018-02-10T06:50:28.412Z,169.70
2018-02-10T06:52:54.611Z,179.67
2018-02-10T06:55:20.824Z,179.63
2018-02-10T06:57:47.023Z,179.17
2018-02-10T07:00:13.975Z,176.73
2018-02-10T07:02:40.167Z,175.27
2018-02-10T07:05:06.376Z,172.33
2018-02-10T07:07:32.552Z,184.70
2018-02-10T07:09:59.479Z,167.53
2018-02-10T07:12:26.414Z,177.23
2018-02-10T07:14:52.645Z,166.80
2018-02-10T07:17:20.277Z,162.87
2018-02-10T07:19:46.594Z,163.03
2018-02-10T07:22:12.764Z,176.27
2018-02-10T07:24:39.735Z,176.47
2018-02-10T07:27:05.980Z,171.60
2018-02-10T07:29:32.210Z,165.67
2018-02-10T07:31:58.463Z,175.27
2018-02-10T07:34:24.650Z,173.03
2018-02-10T07:36:50.816Z,173.63
2018-02-10T07:39:16.995Z,171.83
2018-02-10T07:41:43.230Z,170.17
2018-02-10T07:44:09.418Z,179.87
2018-02-10T07:46:35.554Z,168.13
2018-02-10T07:49:03.110Z,159.67
2018-02-10T07:51:30.123Z,163.23
2018-02-10T07:53:56.324Z,170.63
2018-02-10T07:56:29.851Z,164.63
2018-02-10T07:58:56.046Z,163.63
2018-02-10T08:01:22.519Z,158.77
2018-02-10T08:03:49.012Z,156.13
2018-02-10T08:06:15.253Z,148.47
2018-02-10T08:08:41.712Z,164.83
2018-02-10T08:11:08.156Z,152.90
2018-02-10T08:13:34.375Z,142.83
2018-02-10T08:16:00.561Z,155.13
2018-02-10T08:18:27.252Z,167.70
2018-02-10T08:20:53.786Z,154.70
2018-02-10T08:23:20.335Z,156.10
2018-02-10T08:25:46.545Z,146.50
2018-02-10T08:28:12.715Z,158.73
2018-02-10T08:30:39.383Z,159.07
2018-02-10T08:33:05.563Z,147.50
2018-02-10T08:35:31.779Z,149.97
2018-02-10T08:37:58.584Z,143.77
2018-02-10T08:40:24.978Z,152.93
2018-02-10T08:42:51.206Z,160.17
2018-02-10T08:45:17.409Z,159.93
2018-02-10T08:47:43.814Z,150.33
2018-02-10T08:50:10.887Z,150.23
2018-02-10T08:52:37.088Z,143.70
2018-02-10T08:55:03.775Z,150.10
2018-02-10T08:57:30.023Z,145.87
2018-02-10T08:59:56.434Z,146.90
2018-02-10T09:02:22.651Z,145.97
2018-02-10T09:04:49.421Z,164.63
2018-02-10T09:07:16.798Z,149.77
2018-02-10T09:09:43.475Z,148.03
2018-02-10T09:12:09.879Z,152.70
2018-02-10T09:14:38.438Z,158.37
2018-02-10T09:17:04.865Z,152.50
2018-02-10T09:19:32.454Z,157.33
2018-02-10T09:21:59.554Z,148.73
2018-02-10T09:24:25.985Z,147.60
2018-02-10T09:26:52.599Z,141.53
2018-02-10T09:29:18.972Z,150.97
2018-02-10T09:31:45.405Z,153.53
2018-02-10T09:34:14.917Z,148.10
2018-02-10T09:36:41.573Z,164.47
2018-02-10T09:39:07.948Z,155.43
2018-02-10T09:41:34.388Z,148.20
2018-02-10T09:44:01.475Z,151.50
2018-02-10T09:46:28.344Z,141.63
2018-02-10T09:48:54.742Z,148.10
2018-02-10T09:51:21.198Z,149.47
2018-02-10T09:53:47.581Z,159.00
2018-02-10T09:56:14.675Z,159.00
2018-02-10T09:58:41.161Z,145.73
2018-02-10T10:01:07.965Z,144.37
2018-02-10T10:03:35.095Z,156.80
2018-02-10T10:06:01.482Z,152.50
2018-02-10T10:08:29.516Z,145.10
2018-02-10T10:10:56.566Z,141.17
2018-02-10T10:13:22.763Z,152.27
2018-02-10T10:15:49.016Z,142.33
2018-02-10T10:18:15.190Z,153.30
2018-02-10T10:20:41.386Z,149.80
2018-02-10T10:23:07.547Z,137.47
2018-02-10T10:25:33.746Z,140.07
2018-02-10T10:28:06.810Z,147.47
2018-02-10T10:30:32.987Z,151.23
2018-02-10T10:32:59.188Z,148.90
2018-02-10T10:35:25.350Z,137.57
2018-02-10T10:37:51.588Z,143.33
2018-02-10T10:40:18.713Z,148.07
2018-02-10T10:42:44.952Z,151.70
2018-02-10T10:45:11.194Z,145.23
2018-02-10T10:47:37.440Z,138.17
2018-02-10T10:50:04.384Z,151.27
2018-02-10T10:52:31.359Z,147.90
2018-02-10T10:54:57.854Z,162.10
2018-02-10T10:57:24.103Z,139.53
2018-02-10T10:59:51.008Z,143.47
2018-02-10T11:02:17.958Z,148.43
2018-02-10T11:04:44.874Z,168.60
2018-02-10T11:07:11.073Z,139.60
2018-02-10T11:09:37.244Z,153.50
2018-02-10T11:12:07.016Z,135.33
2018-02-10T11:14:33.413Z,144.03
2018-02-10T11:16:59.642Z,126.27
2018-02-10T11:19:26.592Z,139.80
2018-02-10T11:21:52.826Z,119.93
2018-02-10T11:24:19.027Z,134.07
2018-02-10T11:26:45.941Z,129.17
2018-02-10T11:29:12.186Z,118.13
2018-02-10T11:31:39.122Z,149.00
2018-02-10T11:34:05.302Z,115.67
2018-02-10T11:36:31.526Z,148.83
2018-02-10T11:38:57.712Z,116.53
2018-02-10T11:41:23.892Z,107.27
2018-02-10T11:43:50.067Z,120.97
2018-02-10T11:46:16.244Z,108.00
2018-02-10T11:48:42.418Z,134.37
2018-02-10T11:51:09.390Z,101.40
2018-02-10T11:53:35.557Z,107.73
2018-02-10T11:56:01.754Z,192.77
2018-02-10T11:58:27.948Z,110.80
2018-02-10T12:00:54.995Z,399.50
2018-02-10T12:03:21.214Z,111.80
2018-02-10T12:05:47.374Z,113.07
2018-02-10T12:08:13.541Z,92.93
2018-02-10T12:10:39.774Z,92.33
2018-02-10T12:13:05.945Z,98.70
2018-02-10T12:15:32.847Z,92.80
2018-02-10T12:17:59.078Z,89.80
2018-02-10T12:20:25.395Z,83.67
2018-02-10T12:22:51.577Z,88.30
2018-02-10T12:25:17.837Z,83.10
2018-02-10T12:27:43.991Z,59.53
2018-02-10T12:30:10.244Z,56.50
2018-02-10T12:32:37.251Z,75.13
2018-02-10T12:35:03.528Z,67.43
2018-02-10T12:37:29.782Z,72.87
2018-02-10T12:39:56.782Z,69.30
2018-02-10T12:42:23.794Z,61.60
2018-02-10T12:44:50.058Z,58.93
2018-02-10T12:47:16.314Z,67.43
2018-02-10T12:49:42.475Z,68.93
2018-02-10T12:52:08.742Z,72.40
2018-02-10T12:54:35.686Z,70.97
2018-02-10T12:57:02.651Z,67.13
2018-02-10T12:59:29.315Z,50.40
2018-02-10T13:01:55.730Z,65.23
2018-02-10T13:04:21.935Z,58.27
2018-02-10T13:06:48.164Z,64.97
2018-02-10T13:09:15.103Z,54.97
2018-02-10T13:11:42.016Z,55.93
2018-02-10T13:14:08.199Z,76.03
2018-02-10T13:16:34.404Z,72.17
2018-02-10T13:19:00.626Z,74.10
2018-02-10T13:21:27.600Z,69.67
2018-02-10T13:23:54.300Z,66.60
2018-02-10T13:26:21.235Z,67.03
2018-02-10T13:28:48.207Z,66.50
2018-02-10T13:31:15.145Z,77.23
2018-02-10T13:33:42.145Z,59.47
2018-02-10T13:36:08.339Z,70.70
2018-02-10T13:38:34.533Z,74.33
2018-02-10T13:41:00.803Z,77.97
2018-02-10T13:43:27.092Z,79.93
2018-02-10T13:45:53.344Z,77.43
